sensor_id;sensor_type;location;lat;lon;timestamp;P1;durP1;ratioP1;P2;durP2;ratioP2
69188;SDS011;56302;52.322;5.926;2023-01-01T00:00:40;24.00;;;11.87;;
69188;SDS011;56302;52.322;5.926;2023-01-01T00:03:06;26.63;;;12.90;;
69188;SDS011;56302;52.322;5.926;2023-01-01T00:05:32;24.30;;;12.93;;
69188;SDS011;56302;52.322;5.926;2023-01-01T00:07:57;22.75;;;12.63;;
69188;SDS011;56302;52.322;5.926;2023-01-01T00:10:23;24.13;;;12.47;;
69188;SDS011;56302;52.322;5.926;2023-01-01T00:12:57;25.15;;;12.32;;
69188;SDS011;56302;52.322;5.926;2023-01-01T00:15:24;19.17;;;11.05;;
69188;SDS011;56302;52.322;5.926;2023-01-01T00:17:51;20.33;;;11.15;;
69188;SDS011;56302;52.322;5.926;2023-01-01T00:20:17;22.13;;;10.38;;
69188;SDS011;56302;52.322;5.926;2023-01-01T00:22:43;16.95;;;9.90;;
69188;SDS011;56302;52.322;5.926;2023-01-01T00:25:09;20.63;;;10.23;;
69188;SDS011;56302;52.322;5.926;2023-01-01T00:27:38;21.88;;;10.43;;
69188;SDS011;56302;52.322;5.926;2023-01-01T00:30:04;24.88;;;8.98;;
69188;SDS011;56302;52.322;5.926;2023-01-01T00:32:30;17.70;;;9.10;;
69188;SDS011;56302;52.322;5.926;2023-01-01T00:34:55;22.93;;;9.20;;
69188;SDS011;56302;52.322;5.926;2023-01-01T00:37:21;18.87;;;9.70;;
69188;SDS011;56302;52.322;5.926;2023-01-01T00:39:46;22.55;;;9.45;;
69188;SDS011;56302;52.322;5.926;2023-01-01T00:42:12;23.33;;;10.00;;
69188;SDS011;56302;52.322;5.926;2023-01-01T00:44:37;21.73;;;9.97;;
69188;SDS011;56302;52.322;5.926;2023-01-01T00:47:03;24.27;;;11.10;;
69188;SDS011;56302;52.322;5.926;2023-01-01T00:49:28;21.80;;;10.18;;
69188;SDS011;56302;52.322;5.926;2023-01-01T00:51:54;21.20;;;10.00;;
69188;SDS011;56302;52.322;5.926;2023-01-01T00:54:20;25.10;;;10.68;;
69188;SDS011;56302;52.322;5.926;2023-01-01T00:56:45;20.42;;;10.90;;
69188;SDS011;56302;52.322;5.926;2023-01-01T00:59:11;19.97;;;10.20;;
69188;SDS011;56302;52.322;5.926;2023-01-01T01:01:36;23.67;;;10.17;;
69188;SDS011;56302;52.322;5.926;2023-01-01T01:04:02;17.67;;;10.85;;
69188;SDS011;56302;52.322;5.926;2023-01-01T01:06:28;19.13;;;10.85;;
69188;SDS011;56302;52.322;5.926;2023-01-01T01:08:54;20.73;;;10.40;;
69188;SDS011;56302;52.322;5.926;2023-01-01T01:11:21;22.23;;;10.30;;
69188;SDS011;56302;52.322;5.926;2023-01-01T01:13:49;21.07;;;9.80;;
69188;SDS011;56302;52.322;5.926;2023-01-01T01:16:17;19.10;;;9.25;;
69188;SDS011;56302;52.322;5.926;2023-01-01T01:18:43;19.10;;;8.70;;
69188;SDS011;56302;52.322;5.926;2023-01-01T01:21:09;19.92;;;8.48;;
69188;SDS011;56302;52.322;5.926;2023-01-01T01:23:38;16.77;;;8.65;;
69188;SDS011;56302;52.322;5.926;2023-01-01T01:28:33;19.03;;;7.13;;
69188;SDS011;56302;52.322;5.926;2023-01-01T01:30:59;18.42;;;6.82;;
69188;SDS011;56302;52.322;5.926;2023-01-01T01:33:24;16.33;;;6.97;;
69188;SDS011;56302;52.322;5.926;2023-01-01T01:35:50;16.07;;;6.23;;
69188;SDS011;56302;52.322;5.926;2023-01-01T01:38:16;19.55;;;6.50;;
69188;SDS011;56302;52.322;5.926;2023-01-01T01:40:41;20.93;;;6.37;;
69188;SDS011;56302;52.322;5.926;2023-01-01T01:43:21;13.38;;;5.20;;
69188;SDS011;56302;52.322;5.926;2023-01-01T01:45:56;14.23;;;6.03;;
69188;SDS011;56302;52.322;5.926;2023-01-01T01:48:25;18.45;;;5.63;;
69188;SDS011;56302;52.322;5.926;2023-01-01T01:50:50;17.35;;;6.00;;
69188;SDS011;56302;52.322;5.926;2023-01-01T01:53:22;14.05;;;4.80;;
69188;SDS011;56302;52.322;5.926;2023-01-01T01:55:51;15.90;;;5.18;;
69188;SDS011;56302;52.322;5.926;2023-01-01T01:58:19;10.95;;;4.50;;
69188;SDS011;56302;52.322;5.926;2023-01-01T02:00:46;15.65;;;4.72;;
69188;SDS011;56302;52.322;5.926;2023-01-01T02:03:17;11.73;;;4.28;;
69188;SDS011;56302;52.322;5.926;2023-01-01T02:05:47;12.10;;;4.10;;
69188;SDS011;56302;52.322;5.926;2023-01-01T02:08:14;17.10;;;5.00;;
69188;SDS011;56302;52.322;5.926;2023-01-01T02:10:40;10.73;;;3.95;;
69188;SDS011;56302;52.322;5.926;2023-01-01T02:13:06;14.02;;;3.90;;
69188;SDS011;56302;52.322;5.926;2023-01-01T02:15:35;14.80;;;4.13;;
69188;SDS011;56302;52.322;5.926;2023-01-01T02:18:17;11.57;;;3.47;;
69188;SDS011;56302;52.322;5.926;2023-01-01T02:23:48;9.02;;;2.80;;
69188;SDS011;56302;52.322;5.926;2023-01-01T02:29:08;11.57;;;3.00;;
69188;SDS011;56302;52.322;5.926;2023-01-01T02:31:36;7.70;;;2.95;;
69188;SDS011;56302;52.322;5.926;2023-01-01T02:34:10;12.32;;;2.90;;
69188;SDS011;56302;52.322;5.926;2023-01-01T02:36:40;10.23;;;3.22;;
69188;SDS011;56302;52.322;5.926;2023-01-01T02:39:12;15.85;;;3.03;;
69188;SDS011;56302;52.322;5.926;2023-01-01T02:41:41;12.70;;;2.60;;
69188;SDS011;56302;52.322;5.926;2023-01-01T02:44:10;8.98;;;2.70;;
69188;SDS011;56302;52.322;5.926;2023-01-01T02:46:36;10.75;;;2.95;;
69188;SDS011;56302;52.322;5.926;2023-01-01T02:49:02;8.27;;;2.73;;
69188;SDS011;56302;52.322;5.926;2023-01-01T02:51:34;11.93;;;2.95;;
69188;SDS011;56302;52.322;5.926;2023-01-01T02:57:19;10.05;;;2.78;;
69188;SDS011;56302;52.322;5.926;2023-01-01T03:08:24;8.48;;;2.67;;
69188;SDS011;56302;52.322;5.926;2023-01-01T03:11:01;5.97;;;2.40;;
69188;SDS011;56302;52.322;5.926;2023-01-01T03:13:49;8.07;;;2.60;;
69188;SDS011;56302;52.322;5.926;2023-01-01T03:19:21;8.20;;;2.15;;
69188;SDS011;56302;52.322;5.926;2023-01-01T03:21:51;9.38;;;2.55;;
69188;SDS011;56302;52.322;5.926;2023-01-01T03:27:04;9.65;;;2.33;;
69188;SDS011;56302;52.322;5.926;2023-01-01T03:29:34;7.47;;;2.30;;
69188;SDS011;56302;52.322;5.926;2023-01-01T03:32:04;10.90;;;2.95;;
69188;SDS011;56302;52.322;5.926;2023-01-01T03:34:32;6.60;;;2.17;;
69188;SDS011;56302;52.322;5.926;2023-01-01T03:37:02;10.32;;;2.40;;
69188;SDS011;56302;52.322;5.926;2023-01-01T03:39:36;8.95;;;2.65;;
69188;SDS011;56302;52.322;5.926;2023-01-01T03:46:58;11.38;;;2.55;;
69188;SDS011;56302;52.322;5.926;2023-01-01T03:49:25;10.30;;;2.77;;
69188;SDS011;56302;52.322;5.926;2023-01-01T03:52:03;6.75;;;2.15;;
69188;SDS011;56302;52.322;5.926;2023-01-01T04:00:31;6.50;;;2.20;;
69188;SDS011;56302;52.322;5.926;2023-01-01T04:03:03;10.93;;;2.30;;
69188;SDS011;56302;52.322;5.926;2023-01-01T04:05:34;7.35;;;2.00;;
69188;SDS011;56302;52.322;5.926;2023-01-01T04:08:01;10.05;;;2.38;;
69188;SDS011;56302;52.322;5.926;2023-01-01T04:10:28;7.95;;;2.60;;
69188;SDS011;56302;52.322;5.926;2023-01-01T04:12:56;7.72;;;2.05;;
69188;SDS011;56302;52.322;5.926;2023-01-01T04:15:23;7.33;;;2.03;;
69188;SDS011;56302;52.322;5.926;2023-01-01T04:17:51;9.20;;;2.13;;
69188;SDS011;56302;52.322;5.926;2023-01-01T04:20:17;6.72;;;2.08;;
69188;SDS011;56302;52.322;5.926;2023-01-01T04:22:43;7.35;;;2.00;;
69188;SDS011;56302;52.322;5.926;2023-01-01T04:25:10;9.17;;;1.40;;
69188;SDS011;56302;52.322;5.926;2023-01-01T04:27:36;14.05;;;2.22;;
69188;SDS011;56302;52.322;5.926;2023-01-01T04:30:02;8.68;;;2.17;;
69188;SDS011;56302;52.322;5.926;2023-01-01T04:32:29;6.68;;;2.50;;
69188;SDS011;56302;52.322;5.926;2023-01-01T04:34:54;8.43;;;1.80;;
69188;SDS011;56302;52.322;5.926;2023-01-01T04:37:20;7.35;;;2.42;;
69188;SDS011;56302;52.322;5.926;2023-01-01T04:39:45;5.28;;;2.00;;
69188;SDS011;56302;52.322;5.926;2023-01-01T04:42:11;6.33;;;1.80;;
69188;SDS011;56302;52.322;5.926;2023-01-01T04:44:36;7.03;;;1.52;;
69188;SDS011;56302;52.322;5.926;2023-01-01T04:47:02;7.93;;;1.60;;
69188;SDS011;56302;52.322;5.926;2023-01-01T04:49:28;7.68;;;1.90;;
69188;SDS011;56302;52.322;5.926;2023-01-01T04:51:53;5.57;;;1.80;;
69188;SDS011;56302;52.322;5.926;2023-01-01T04:54:19;6.90;;;1.70;;
69188;SDS011;56302;52.322;5.926;2023-01-01T04:56:44;8.27;;;1.90;;
69188;SDS011;56302;52.322;5.926;2023-01-01T04:59:10;5.70;;;1.40;;
69188;SDS011;56302;52.322;5.926;2023-01-01T05:01:35;6.03;;;1.40;;
69188;SDS011;56302;52.322;5.926;2023-01-01T05:04:01;7.43;;;1.70;;
69188;SDS011;56302;52.322;5.926;2023-01-01T05:06:26;7.65;;;2.00;;
69188;SDS011;56302;52.322;5.926;2023-01-01T05:08:54;4.37;;;1.47;;
69188;SDS011;56302;52.322;5.926;2023-01-01T05:11:21;4.03;;;1.58;;
69188;SDS011;56302;52.322;5.926;2023-01-01T05:13:49;6.72;;;1.80;;
69188;SDS011;56302;52.322;5.926;2023-01-01T05:16:17;5.45;;;1.85;;
69188;SDS011;56302;52.322;5.926;2023-01-01T05:18:44;8.00;;;2.03;;
69188;SDS011;56302;52.322;5.926;2023-01-01T05:21:12;6.83;;;2.10;;
69188;SDS011;56302;52.322;5.926;2023-01-01T05:23:42;8.45;;;2.00;;
69188;SDS011;56302;52.322;5.926;2023-01-01T05:26:19;5.78;;;1.98;;
69188;SDS011;56302;52.322;5.926;2023-01-01T05:28:47;9.43;;;2.13;;
69188;SDS011;56302;52.322;5.926;2023-01-01T05:31:14;7.60;;;2.03;;
69188;SDS011;56302;52.322;5.926;2023-01-01T05:33:43;5.18;;;2.03;;
69188;SDS011;56302;52.322;5.926;2023-01-01T05:36:13;6.82;;;1.95;;
69188;SDS011;56302;52.322;5.926;2023-01-01T05:38:40;6.60;;;1.90;;
69188;SDS011;56302;52.322;5.926;2023-01-01T05:41:06;6.75;;;2.10;;
69188;SDS011;56302;52.322;5.926;2023-01-01T05:43:33;8.30;;;1.90;;
69188;SDS011;56302;52.322;5.926;2023-01-01T05:46:00;6.00;;;2.10;;
69188;SDS011;56302;52.322;5.926;2023-01-01T05:48:26;10.35;;;1.83;;
69188;SDS011;56302;52.322;5.926;2023-01-01T05:50:52;8.57;;;1.90;;
69188;SDS011;56302;52.322;5.926;2023-01-01T05:53:17;8.77;;;1.63;;
69188;SDS011;56302;52.322;5.926;2023-01-01T05:55:43;5.50;;;2.23;;
69188;SDS011;56302;52.322;5.926;2023-01-01T05:58:08;5.13;;;1.77;;
69188;SDS011;56302;52.322;5.926;2023-01-01T06:00:34;5.20;;;1.83;;
69188;SDS011;56302;52.322;5.926;2023-01-01T06:02:59;7.43;;;2.37;;
69188;SDS011;56302;52.322;5.926;2023-01-01T06:05:25;6.07;;;1.37;;
69188;SDS011;56302;52.322;5.926;2023-01-01T06:07:50;5.65;;;2.00;;
69188;SDS011;56302;52.322;5.926;2023-01-01T06:10:16;4.97;;;1.30;;
69188;SDS011;56302;52.322;5.926;2023-01-01T06:12:41;6.63;;;1.97;;
69188;SDS011;56302;52.322;5.926;2023-01-01T06:15:07;6.73;;;1.60;;
69188;SDS011;56302;52.322;5.926;2023-01-01T06:17:33;5.65;;;1.85;;
69188;SDS011;56302;52.322;5.926;2023-01-01T06:19:58;7.85;;;1.45;;
69188;SDS011;56302;52.322;5.926;2023-01-01T06:22:24;6.37;;;1.70;;
69188;SDS011;56302;52.322;5.926;2023-01-01T06:24:50;6.13;;;1.43;;
69188;SDS011;56302;52.322;5.926;2023-01-01T06:27:15;7.43;;;1.90;;
69188;SDS011;56302;52.322;5.926;2023-01-01T06:29:40;5.50;;;1.70;;
69188;SDS011;56302;52.322;5.926;2023-01-01T06:32:06;4.97;;;1.87;;
69188;SDS011;56302;52.322;5.926;2023-01-01T06:34:31;5.13;;;1.42;;
69188;SDS011;56302;52.322;5.926;2023-01-01T06:36:57;6.27;;;1.53;;
69188;SDS011;56302;52.322;5.926;2023-01-01T06:39:22;5.93;;;1.50;;
69188;SDS011;56302;52.322;5.926;2023-01-01T06:41:48;6.60;;;1.60;;
69188;SDS011;56302;52.322;5.926;2023-01-01T06:44:13;10.48;;;1.65;;
69188;SDS011;56302;52.322;5.926;2023-01-01T06:46:39;7.17;;;2.27;;
69188;SDS011;56302;52.322;5.926;2023-01-01T06:49:05;7.27;;;1.40;;
69188;SDS011;56302;52.322;5.926;2023-01-01T06:51:38;8.18;;;1.50;;
69188;SDS011;56302;52.322;5.926;2023-01-01T06:54:05;6.35;;;1.30;;
69188;SDS011;56302;52.322;5.926;2023-01-01T06:56:31;8.57;;;1.75;;
69188;SDS011;56302;52.322;5.926;2023-01-01T06:58:57;5.37;;;1.47;;
69188;SDS011;56302;52.322;5.926;2023-01-01T07:01:24;5.65;;;1.50;;
69188;SDS011;56302;52.322;5.926;2023-01-01T07:03:51;6.45;;;1.35;;
69188;SDS011;56302;52.322;5.926;2023-01-01T07:06:22;6.38;;;1.48;;
69188;SDS011;56302;52.322;5.926;2023-01-01T07:08:48;7.77;;;1.23;;
69188;SDS011;56302;52.322;5.926;2023-01-01T07:11:14;8.23;;;1.50;;
69188;SDS011;56302;52.322;5.926;2023-01-01T07:13:40;9.10;;;1.83;;
69188;SDS011;56302;52.322;5.926;2023-01-01T07:16:05;6.13;;;1.65;;
69188;SDS011;56302;52.322;5.926;2023-01-01T07:18:31;7.88;;;1.30;;
69188;SDS011;56302;52.322;5.926;2023-01-01T07:20:58;7.57;;;1.57;;
69188;SDS011;56302;52.322;5.926;2023-01-01T07:23:25;5.93;;;1.67;;
69188;SDS011;56302;52.322;5.926;2023-01-01T07:25:52;6.55;;;1.92;;
69188;SDS011;56302;52.322;5.926;2023-01-01T07:28:19;7.18;;;1.58;;
69188;SDS011;56302;52.322;5.926;2023-01-01T07:30:46;11.13;;;2.17;;
69188;SDS011;56302;52.322;5.926;2023-01-01T07:33:14;6.63;;;1.48;;
69188;SDS011;56302;52.322;5.926;2023-01-01T07:35:44;7.93;;;1.65;;
69188;SDS011;56302;52.322;5.926;2023-01-01T07:38:10;4.85;;;1.02;;
69188;SDS011;56302;52.322;5.926;2023-01-01T07:40:36;6.75;;;1.67;;
69188;SDS011;56302;52.322;5.926;2023-01-01T07:43:02;4.90;;;1.10;;
69188;SDS011;56302;52.322;5.926;2023-01-01T07:45:28;7.47;;;1.98;;
69188;SDS011;56302;52.322;5.926;2023-01-01T07:47:54;6.57;;;1.60;;
69188;SDS011;56302;52.322;5.926;2023-01-01T07:50:21;4.68;;;1.10;;
69188;SDS011;56302;52.322;5.926;2023-01-01T07:52:48;8.85;;;1.52;;
69188;SDS011;56302;52.322;5.926;2023-01-01T07:55:14;6.17;;;1.30;;
69188;SDS011;56302;52.322;5.926;2023-01-01T07:57:41;5.85;;;1.30;;
69188;SDS011;56302;52.322;5.926;2023-01-01T08:00:08;6.20;;;1.38;;
69188;SDS011;56302;52.322;5.926;2023-01-01T08:02:35;5.32;;;1.30;;
69188;SDS011;56302;52.322;5.926;2023-01-01T08:05:01;4.10;;;1.42;;
69188;SDS011;56302;52.322;5.926;2023-01-01T08:07:26;8.27;;;1.40;;
69188;SDS011;56302;52.322;5.926;2023-01-01T08:09:52;6.25;;;1.50;;
69188;SDS011;56302;52.322;5.926;2023-01-01T08:12:17;6.95;;;1.70;;
69188;SDS011;56302;52.322;5.926;2023-01-01T08:14:43;5.93;;;1.50;;
69188;SDS011;56302;52.322;5.926;2023-01-01T08:17:09;6.70;;;1.50;;
69188;SDS011;56302;52.322;5.926;2023-01-01T08:19:34;3.70;;;1.60;;
69188;SDS011;56302;52.322;5.926;2023-01-01T08:22:00;6.57;;;1.70;;
69188;SDS011;56302;52.322;5.926;2023-01-01T08:24:25;5.43;;;1.37;;
69188;SDS011;56302;52.322;5.926;2023-01-01T08:26:51;8.45;;;1.48;;
69188;SDS011;56302;52.322;5.926;2023-01-01T08:29:16;5.37;;;1.40;;
69188;SDS011;56302;52.322;5.926;2023-01-01T08:31:42;6.32;;;1.60;;
69188;SDS011;56302;52.322;5.926;2023-01-01T08:34:08;8.90;;;1.30;;
69188;SDS011;56302;52.322;5.926;2023-01-01T08:36:33;6.53;;;1.30;;
69188;SDS011;56302;52.322;5.926;2023-01-01T08:38:59;5.80;;;1.10;;
69188;SDS011;56302;52.322;5.926;2023-01-01T08:41:25;6.25;;;1.30;;
69188;SDS011;56302;52.322;5.926;2023-01-01T08:43:50;7.00;;;1.35;;
69188;SDS011;56302;52.322;5.926;2023-01-01T08:46:16;5.53;;;1.27;;
69188;SDS011;56302;52.322;5.926;2023-01-01T08:48:41;6.68;;;1.40;;
69188;SDS011;56302;52.322;5.926;2023-01-01T08:51:08;7.27;;;1.50;;
69188;SDS011;56302;52.322;5.926;2023-01-01T08:53:34;7.78;;;1.52;;
69188;SDS011;56302;52.322;5.926;2023-01-01T08:56:01;7.78;;;1.38;;
69188;SDS011;56302;52.322;5.926;2023-01-01T08:58:29;6.88;;;1.92;;
69188;SDS011;56302;52.322;5.926;2023-01-01T09:00:54;6.93;;;1.35;;
69188;SDS011;56302;52.322;5.926;2023-01-01T09:03:21;5.53;;;1.40;;
69188;SDS011;56302;52.322;5.926;2023-01-01T09:05:46;7.63;;;1.13;;
69188;SDS011;56302;52.322;5.926;2023-01-01T09:08:12;8.48;;;2.10;;
69188;SDS011;56302;52.322;5.926;2023-01-01T09:10:38;7.20;;;1.50;;
69188;SDS011;56302;52.322;5.926;2023-01-01T09:13:04;6.82;;;1.70;;
69188;SDS011;56302;52.322;5.926;2023-01-01T09:15:29;6.40;;;1.50;;
69188;SDS011;56302;52.322;5.926;2023-01-01T09:17:55;9.88;;;1.60;;
69188;SDS011;56302;52.322;5.926;2023-01-01T09:20:20;6.60;;;1.20;;
69188;SDS011;56302;52.322;5.926;2023-01-01T09:22:46;6.00;;;1.60;;
69188;SDS011;56302;52.322;5.926;2023-01-01T09:25:12;8.97;;;1.47;;
69188;SDS011;56302;52.322;5.926;2023-01-01T09:27:37;6.27;;;1.50;;
69188;SDS011;56302;52.322;5.926;2023-01-01T09:30:03;8.18;;;1.60;;
69188;SDS011;56302;52.322;5.926;2023-01-01T09:32:29;7.13;;;1.30;;
69188;SDS011;56302;52.322;5.926;2023-01-01T09:34:54;6.97;;;1.65;;
69188;SDS011;56302;52.322;5.926;2023-01-01T09:37:21;8.73;;;1.65;;
69188;SDS011;56302;52.322;5.926;2023-01-01T09:39:47;10.37;;;1.60;;
69188;SDS011;56302;52.322;5.926;2023-01-01T09:45:04;8.38;;;1.83;;
69188;SDS011;56302;52.322;5.926;2023-01-01T09:47:50;13.37;;;1.73;;
69188;SDS011;56302;52.322;5.926;2023-01-01T09:50:23;5.35;;;1.30;;
69188;SDS011;56302;52.322;5.926;2023-01-01T09:52:57;9.23;;;1.33;;
69188;SDS011;56302;52.322;5.926;2023-01-01T09:55:28;7.72;;;1.58;;
69188;SDS011;56302;52.322;5.926;2023-01-01T09:58:06;7.88;;;1.60;;
69188;SDS011;56302;52.322;5.926;2023-01-01T10:00:34;6.00;;;1.10;;
69188;SDS011;56302;52.322;5.926;2023-01-01T10:03:06;7.30;;;1.30;;
69188;SDS011;56302;52.322;5.926;2023-01-01T10:14:52;12.00;;;1.97;;
69188;SDS011;56302;52.322;5.926;2023-01-01T10:16:53;13.95;;;1.45;;
69188;SDS011;56302;52.322;5.926;2023-01-01T10:19:25;8.57;;;1.70;;
69188;SDS011;56302;52.322;5.926;2023-01-01T10:21:57;6.30;;;1.50;;
69188;SDS011;56302;52.322;5.926;2023-01-01T10:27:03;9.37;;;1.50;;
69188;SDS011;56302;52.322;5.926;2023-01-01T10:29:40;8.15;;;1.80;;
69188;SDS011;56302;52.322;5.926;2023-01-01T10:32:17;8.57;;;1.30;;
69188;SDS011;56302;52.322;5.926;2023-01-01T10:34:45;6.78;;;1.05;;
69188;SDS011;56302;52.322;5.926;2023-01-01T10:37:11;12.15;;;1.65;;
69188;SDS011;56302;52.322;5.926;2023-01-01T10:39:39;8.73;;;2.03;;
69188;SDS011;56302;52.322;5.926;2023-01-01T10:42:05;8.40;;;1.77;;
69188;SDS011;56302;52.322;5.926;2023-01-01T10:44:31;7.97;;;1.70;;
69188;SDS011;56302;52.322;5.926;2023-01-01T10:47:00;7.20;;;1.80;;
69188;SDS011;56302;52.322;5.926;2023-01-01T10:52:30;10.40;;;1.33;;
69188;SDS011;56302;52.322;5.926;2023-01-01T10:55:19;10.35;;;1.80;;
69188;SDS011;56302;52.322;5.926;2023-01-01T10:57:53;8.95;;;2.55;;
69188;SDS011;56302;52.322;5.926;2023-01-01T11:05:37;8.10;;;1.90;;
69188;SDS011;56302;52.322;5.926;2023-01-01T11:08:03;9.43;;;1.63;;
69188;SDS011;56302;52.322;5.926;2023-01-01T11:10:39;7.13;;;2.20;;
69188;SDS011;56302;52.322;5.926;2023-01-01T11:13:13;8.97;;;1.90;;
69188;SDS011;56302;52.322;5.926;2023-01-01T11:15:43;10.93;;;1.80;;
69188;SDS011;56302;52.322;5.926;2023-01-01T11:18:15;11.40;;;2.00;;
69188;SDS011;56302;52.322;5.926;2023-01-01T11:20:52;7.83;;;1.77;;
69188;SDS011;56302;52.322;5.926;2023-01-01T11:28:36;9.85;;;1.95;;
69188;SDS011;56302;52.322;5.926;2023-01-01T11:31:04;10.63;;;1.75;;
69188;SDS011;56302;52.322;5.926;2023-01-01T11:33:49;9.67;;;1.60;;
69188;SDS011;56302;52.322;5.926;2023-01-01T11:36:24;7.18;;;2.00;;
69188;SDS011;56302;52.322;5.926;2023-01-01T11:41:53;6.72;;;2.22;;
69188;SDS011;56302;52.322;5.926;2023-01-01T11:44:24;8.27;;;1.90;;
69188;SDS011;56302;52.322;5.926;2023-01-01T11:46:53;4.60;;;1.50;;
69188;SDS011;56302;52.322;5.926;2023-01-01T11:49:22;7.45;;;1.90;;
69188;SDS011;56302;52.322;5.926;2023-01-01T11:51:51;10.27;;;1.65;;
69188;SDS011;56302;52.322;5.926;2023-01-01T11:54:24;12.23;;;2.03;;
69188;SDS011;56302;52.322;5.926;2023-01-01T11:56:53;11.30;;;2.33;;
69188;SDS011;56302;52.322;5.926;2023-01-01T11:59:25;9.63;;;1.85;;
69188;SDS011;56302;52.322;5.926;2023-01-01T12:01:57;8.98;;;2.20;;
69188;SDS011;56302;52.322;5.926;2023-01-01T12:04:30;10.10;;;2.28;;
69188;SDS011;56302;52.322;5.926;2023-01-01T12:07:07;11.85;;;2.50;;
69188;SDS011;56302;52.322;5.926;2023-01-01T12:09:51;13.60;;;2.72;;
69188;SDS011;56302;52.322;5.926;2023-01-01T12:12:59;7.50;;;2.20;;
69188;SDS011;56302;52.322;5.926;2023-01-01T12:15:34;11.93;;;2.05;;
69188;SDS011;56302;52.322;5.926;2023-01-01T12:18:26;11.13;;;2.13;;
69188;SDS011;56302;52.322;5.926;2023-01-01T12:21:02;9.77;;;2.40;;
69188;SDS011;56302;52.322;5.926;2023-01-01T12:23:50;6.85;;;2.10;;
69188;SDS011;56302;52.322;5.926;2023-01-01T12:36:55;10.93;;;2.70;;
69188;SDS011;56302;52.322;5.926;2023-01-01T12:44:58;12.27;;;2.90;;
69188;SDS011;56302;52.322;5.926;2023-01-01T12:55:55;7.60;;;2.17;;
69188;SDS011;56302;52.322;5.926;2023-01-01T12:58:29;12.10;;;2.60;;
69188;SDS011;56302;52.322;5.926;2023-01-01T13:01:06;9.93;;;2.17;;
69188;SDS011;56302;52.322;5.926;2023-01-01T13:03:41;11.75;;;2.53;;
69188;SDS011;56302;52.322;5.926;2023-01-01T13:06:13;10.32;;;3.22;;
69188;SDS011;56302;52.322;5.926;2023-01-01T13:08:42;8.65;;;2.58;;
69188;SDS011;56302;52.322;5.926;2023-01-01T13:11:11;12.15;;;2.45;;
69188;SDS011;56302;52.322;5.926;2023-01-01T13:13:37;8.73;;;2.30;;
69188;SDS011;56302;52.322;5.926;2023-01-01T13:16:03;9.97;;;2.67;;
69188;SDS011;56302;52.322;5.926;2023-01-01T13:18:32;8.40;;;2.45;;
69188;SDS011;56302;52.322;5.926;2023-01-01T13:26:29;12.73;;;3.03;;
69188;SDS011;56302;52.322;5.926;2023-01-01T13:50:32;10.13;;;2.83;;
69188;SDS011;56302;52.322;5.926;2023-01-01T13:58:40;18.27;;;2.83;;
69188;SDS011;56302;52.322;5.926;2023-01-01T14:04:05;9.20;;;2.33;;
69188;SDS011;56302;52.322;5.926;2023-01-01T14:06:41;11.35;;;2.15;;
69188;SDS011;56302;52.322;5.926;2023-01-01T14:09:12;10.32;;;2.10;;
69188;SDS011;56302;52.322;5.926;2023-01-01T14:11:39;10.55;;;2.85;;
69188;SDS011;56302;52.322;5.926;2023-01-01T14:16:57;11.35;;;2.50;;
69188;SDS011;56302;52.322;5.926;2023-01-01T14:19:24;12.52;;;2.60;;
69188;SDS011;56302;52.322;5.926;2023-01-01T14:21:51;13.98;;;3.17;;
69188;SDS011;56302;52.322;5.926;2023-01-01T14:24:17;12.45;;;2.80;;
69188;SDS011;56302;52.322;5.926;2023-01-01T14:26:45;12.98;;;2.80;;
69188;SDS011;56302;52.322;5.926;2023-01-01T14:29:16;23.20;;;3.85;;
69188;SDS011;56302;52.322;5.926;2023-01-01T14:31:46;16.33;;;2.75;;
69188;SDS011;56302;52.322;5.926;2023-01-01T14:34:12;16.90;;;2.50;;
69188;SDS011;56302;52.322;5.926;2023-01-01T14:36:52;10.10;;;2.47;;
69188;SDS011;56302;52.322;5.926;2023-01-01T14:39:22;14.10;;;2.90;;
69188;SDS011;56302;52.322;5.926;2023-01-01T14:41:49;7.47;;;2.47;;
69188;SDS011;56302;52.322;5.926;2023-01-01T14:44:16;12.88;;;2.70;;
69188;SDS011;56302;52.322;5.926;2023-01-01T14:46:45;9.88;;;2.35;;
69188;SDS011;56302;52.322;5.926;2023-01-01T14:49:16;13.65;;;2.55;;
69188;SDS011;56302;52.322;5.926;2023-01-01T14:51:54;15.13;;;2.60;;
69188;SDS011;56302;52.322;5.926;2023-01-01T14:54:25;9.30;;;2.17;;
69188;SDS011;56302;52.322;5.926;2023-01-01T14:56:57;11.18;;;2.33;;
69188;SDS011;56302;52.322;5.926;2023-01-01T14:59:25;9.23;;;2.20;;
69188;SDS011;56302;52.322;5.926;2023-01-01T15:01:58;10.30;;;2.15;;
69188;SDS011;56302;52.322;5.926;2023-01-01T15:04:25;11.73;;;2.42;;
69188;SDS011;56302;52.322;5.926;2023-01-01T15:06:52;15.37;;;2.17;;
69188;SDS011;56302;52.322;5.926;2023-01-01T15:09:22;15.60;;;2.83;;
69188;SDS011;56302;52.322;5.926;2023-01-01T15:11:50;12.70;;;3.07;;
69188;SDS011;56302;52.322;5.926;2023-01-01T15:14:27;12.65;;;2.67;;
69188;SDS011;56302;52.322;5.926;2023-01-01T15:19:30;11.73;;;2.70;;
69188;SDS011;56302;52.322;5.926;2023-01-01T15:21:56;11.53;;;2.53;;
69188;SDS011;56302;52.322;5.926;2023-01-01T15:24:22;11.00;;;2.40;;
69188;SDS011;56302;52.322;5.926;2023-01-01T15:29:40;10.93;;;2.53;;
69188;SDS011;56302;52.322;5.926;2023-01-01T15:32:06;10.80;;;2.65;;
69188;SDS011;56302;52.322;5.926;2023-01-01T15:34:36;10.73;;;2.45;;
69188;SDS011;56302;52.322;5.926;2023-01-01T15:37:15;11.60;;;2.30;;
69188;SDS011;56302;52.322;5.926;2023-01-01T15:47:47;7.72;;;2.30;;
69188;SDS011;56302;52.322;5.926;2023-01-01T15:52:45;11.20;;;2.38;;
69188;SDS011;56302;52.322;5.926;2023-01-01T15:55:14;9.43;;;2.17;;
69188;SDS011;56302;52.322;5.926;2023-01-01T15:57:44;15.15;;;2.78;;
69188;SDS011;56302;52.322;5.926;2023-01-01T16:00:18;6.20;;;1.98;;
69188;SDS011;56302;52.322;5.926;2023-01-01T16:02:45;11.45;;;2.60;;
69188;SDS011;56302;52.322;5.926;2023-01-01T16:05:14;10.55;;;2.08;;
69188;SDS011;56302;52.322;5.926;2023-01-01T16:07:42;14.07;;;2.75;;
69188;SDS011;56302;52.322;5.926;2023-01-01T16:10:15;11.37;;;2.13;;
69188;SDS011;56302;52.322;5.926;2023-01-01T16:12:42;9.27;;;2.55;;
69188;SDS011;56302;52.322;5.926;2023-01-01T16:15:10;7.78;;;2.45;;
69188;SDS011;56302;52.322;5.926;2023-01-01T16:17:39;11.23;;;2.58;;
69188;SDS011;56302;52.322;5.926;2023-01-01T16:20:05;12.93;;;2.07;;
69188;SDS011;56302;52.322;5.926;2023-01-01T16:22:31;12.70;;;2.35;;
69188;SDS011;56302;52.322;5.926;2023-01-01T16:24:57;9.87;;;2.10;;
69188;SDS011;56302;52.322;5.926;2023-01-01T16:27:22;13.57;;;2.40;;
69188;SDS011;56302;52.322;5.926;2023-01-01T16:29:48;11.30;;;2.73;;
69188;SDS011;56302;52.322;5.926;2023-01-01T16:32:16;14.60;;;3.20;;
69188;SDS011;56302;52.322;5.926;2023-01-01T16:34:42;11.98;;;2.40;;
69188;SDS011;56302;52.322;5.926;2023-01-01T16:37:08;8.30;;;2.42;;
69188;SDS011;56302;52.322;5.926;2023-01-01T16:39:34;9.77;;;2.60;;
69188;SDS011;56302;52.322;5.926;2023-01-01T16:41:59;11.13;;;2.27;;
69188;SDS011;56302;52.322;5.926;2023-01-01T16:44:25;18.25;;;3.35;;
69188;SDS011;56302;52.322;5.926;2023-01-01T16:46:50;12.13;;;2.23;;
69188;SDS011;56302;52.322;5.926;2023-01-01T16:49:16;9.70;;;2.37;;
69188;SDS011;56302;52.322;5.926;2023-01-01T16:51:41;10.48;;;3.13;;
69188;SDS011;56302;52.322;5.926;2023-01-01T16:54:07;15.73;;;3.00;;
69188;SDS011;56302;52.322;5.926;2023-01-01T16:56:32;9.87;;;2.23;;
69188;SDS011;56302;52.322;5.926;2023-01-01T16:58:58;12.65;;;2.50;;
69188;SDS011;56302;52.322;5.926;2023-01-01T17:01:24;10.43;;;2.13;;
69188;SDS011;56302;52.322;5.926;2023-01-01T17:03:50;15.52;;;2.80;;
69188;SDS011;56302;52.322;5.926;2023-01-01T17:06:16;10.32;;;2.28;;
69188;SDS011;56302;52.322;5.926;2023-01-01T17:08:42;9.77;;;2.27;;
69188;SDS011;56302;52.322;5.926;2023-01-01T17:11:10;11.05;;;2.53;;
69188;SDS011;56302;52.322;5.926;2023-01-01T17:13:38;10.63;;;3.22;;